createdAt,value
2022-07-27T00:01:09.870Z,18.80
2022-07-27T00:03:38.717Z,18.70
2022-07-27T00:08:35.391Z,18.70
2022-07-27T00:11:05.120Z,18.70
2022-07-27T00:16:01.515Z,18.60
2022-07-27T00:20:57.803Z,18.50
2022-07-27T00:23:26.018Z,18.60
2022-07-27T00:28:23.585Z,18.50
2022-07-27T00:38:16.578Z,18.30
2022-07-27T00:43:13.455Z,18.30
2022-07-27T00:45:42.699Z,18.20
2022-07-27T00:48:10.604Z,18.20
2022-07-27T00:50:39.559Z,18.20
2022-07-27T00:53:08.913Z,18.10
2022-07-27T00:58:08.765Z,18.10
2022-07-27T01:00:38.196Z,18.10
2022-07-27T01:03:09.574Z,18.10
2022-07-27T01:05:43.324Z,18.10
2022-07-27T01:08:13.927Z,18.10
2022-07-27T01:13:12.529Z,18.00
2022-07-27T01:18:15.054Z,17.90
2022-07-27T01:20:43.837Z,17.90
2022-07-27T01:23:13.086Z,17.90
2022-07-27T01:25:42.833Z,17.80
2022-07-27T01:33:09.444Z,17.70
2022-07-27T01:35:39.023Z,17.70
2022-07-27T01:38:08.484Z,17.70
2022-07-27T01:40:39.559Z,17.60
2022-07-27T01:50:32.685Z,17.50
2022-07-27T01:58:09.146Z,17.40
2022-07-27T02:15:33.878Z,17.20
2022-07-27T02:30:54.251Z,17.10
2022-07-27T02:48:16.089Z,16.80
2022-07-27T03:05:35.336Z,16.70
2022-07-27T03:22:56.287Z,16.50
2022-07-27T03:40:17.316Z,16.40
2022-07-27T03:57:37.115Z,16.20
2022-07-27T04:00:06.760Z,16.20
2022-07-27T04:15:00.987Z,16.10
2022-07-27T04:30:12.390Z,16.00
2022-07-27T04:35:09.937Z,16.00
2022-07-27T04:40:07.776Z,16.00
2022-07-27T04:47:33.786Z,16.10
2022-07-27T05:04:57.729Z,16.30
2022-07-27T05:19:47.544Z,16.40
2022-07-27T05:22:16.757Z,16.50
2022-07-27T05:24:45.655Z,16.50
2022-07-27T05:27:13.896Z,16.60
2022-07-27T05:39:36.421Z,16.90
2022-07-27T05:47:01.514Z,17.10
2022-07-27T05:52:02.190Z,17.20
2022-07-27T05:57:00.309Z,17.40
2022-07-27T06:01:57.550Z,17.50
2022-07-27T06:04:25.662Z,17.50
2022-07-27T06:07:10.932Z,17.60
2022-07-27T06:12:09.216Z,17.60
2022-07-27T06:14:37.641Z,17.70
2022-07-27T06:17:05.713Z,17.80
2022-07-27T06:22:06.340Z,17.90
2022-07-27T06:24:34.710Z,17.90
2022-07-27T06:29:32.256Z,18.00
2022-07-27T06:41:58.399Z,18.20
2022-07-27T06:46:58.739Z,18.30
2022-07-27T06:51:55.040Z,18.50
2022-07-27T06:54:23.363Z,18.60
2022-07-27T06:59:19.790Z,18.80
2022-07-27T07:01:49.004Z,18.90
2022-07-27T07:04:23.953Z,19.10
2022-07-27T07:09:22.493Z,19.20
2022-07-27T07:19:15.646Z,19.70
2022-07-27T07:21:45.096Z,19.70
2022-07-27T07:24:13.799Z,19.80
2022-07-27T07:26:42.158Z,19.90
2022-07-27T07:29:10.563Z,20.00
2022-07-27T07:34:07.051Z,20.20
2022-07-27T07:36:34.908Z,20.30
2022-07-27T07:39:04.819Z,20.40
2022-07-27T07:41:32.687Z,20.50
2022-07-27T07:46:29.477Z,20.70
2022-07-27T07:48:57.478Z,20.80
2022-07-27T07:51:25.973Z,20.90
2022-07-27T07:56:23.433Z,21.10
2022-07-27T07:58:51.737Z,21.20
2022-07-27T08:01:22.421Z,21.30
2022-07-27T08:03:52.228Z,21.40
2022-07-27T08:06:20.293Z,21.40
2022-07-27T08:08:48.153Z,21.50
2022-07-27T08:11:16.482Z,21.50
2022-07-27T08:13:45.747Z,21.60
2022-07-27T08:16:13.907Z,21.70
2022-07-27T08:18:41.772Z,21.70
2022-07-27T08:21:09.787Z,21.70
2022-07-27T08:23:37.802Z,21.80
2022-07-27T08:26:08.125Z,21.80
2022-07-27T08:28:36.833Z,21.90
2022-07-27T08:31:14.443Z,22.00
2022-07-27T08:33:43.290Z,22.20
2022-07-27T08:36:11.209Z,22.30
2022-07-27T08:38:39.013Z,22.30
2022-07-27T08:41:09.586Z,22.50
2022-07-27T08:43:38.508Z,22.50
2022-07-27T08:46:08.390Z,22.50
2022-07-27T08:48:39.162Z,22.60
2022-07-27T08:51:07.517Z,22.60
2022-07-27T08:53:52.815Z,22.60
2022-07-27T08:56:22.004Z,22.70
2022-07-27T08:58:49.927Z,22.80
2022-07-27T09:01:19.556Z,22.80
2022-07-27T09:03:48.189Z,22.90
2022-07-27T09:06:43.541Z,22.90
2022-07-27T09:09:12.564Z,23.00
2022-07-27T09:11:40.839Z,23.00
2022-07-27T09:14:11.234Z,24.40
2022-07-27T09:17:28.677Z,23.10
2022-07-27T09:21:57.116Z,23.20
2022-07-27T09:29:43.763Z,23.60
2022-07-27T09:32:17.866Z,27.00
2022-07-27T09:34:46.236Z,23.60
2022-07-27T09:37:24.885Z,23.70
2022-07-27T09:40:10.353Z,23.70
2022-07-27T09:43:09.212Z,23.70
2022-07-27T09:45:33.906Z,23.70
2022-07-27T09:48:14.754Z,23.60
2022-07-27T09:51:01.524Z,23.50
2022-07-27T09:53:42.843Z,23.40
2022-07-27T09:56:15.913Z,23.30
2022-07-27T09:58:47.159Z,23.20
2022-07-27T10:01:17.997Z,23.20
2022-07-27T10:03:48.593Z,23.10
2022-07-27T10:06:17.307Z,24.10
2022-07-27T10:08:48.120Z,23.20
2022-07-27T10:11:17.346Z,23.20
2022-07-27T10:13:46.009Z,23.40
2022-07-27T10:16:16.196Z,24.90
2022-07-27T10:18:55.682Z,23.40
2022-07-27T10:21:24.797Z,26.20
2022-07-27T10:23:57.433Z,26.70
2022-07-27T10:26:36.752Z,26.40
2022-07-27T10:29:07.644Z,24.10
2022-07-27T10:31:37.946Z,25.70
2022-07-27T10:34:08.802Z,24.40
2022-07-27T10:36:53.607Z,24.40
2022-07-27T10:39:33.939Z,24.40
2022-07-27T10:42:21.983Z,24.60
2022-07-27T10:44:55.777Z,24.30
2022-07-27T10:47:32.145Z,24.20
2022-07-27T10:50:36.520Z,24.20
2022-07-27T10:53:08.402Z,24.20
2022-07-27T10:55:50.399Z,24.10
2022-07-27T10:59:00.813Z,24.20
2022-07-27T11:01:28.771Z,24.20
2022-07-27T11:03:57.094Z,24.20
2022-07-27T11:06:41.885Z,24.20
2022-07-27T11:10:03.074Z,24.20
2022-07-27T11:12:06.480Z,24.20
2022-07-27T11:14:45.972Z,24.20
2022-07-27T11:17:48.740Z,26.70
2022-07-27T11:20:04.522Z,24.30
2022-07-27T11:23:03.226Z,24.50
2022-07-27T11:25:24.500Z,24.60
2022-07-27T11:27:52.911Z,24.80
2022-07-27T11:30:25.715Z,24.90
2022-07-27T11:32:53.888Z,26.60
2022-07-27T11:35:21.829Z,25.20
2022-07-27T11:38:00.548Z,25.30
2022-07-27T11:40:57.341Z,28.10
2022-07-27T11:43:38.196Z,26.50
2022-07-27T11:46:14.292Z,25.60
2022-07-27T11:49:08.350Z,25.70
2022-07-27T11:51:41.031Z,25.90
2022-07-27T11:54:10.912Z,27.60
2022-07-27T11:56:43.367Z,26.10
2022-07-27T11:59:14.726Z,26.30
2022-07-27T12:01:45.704Z,26.90
2022-07-27T12:04:18.607Z,26.70
2022-07-27T12:06:49.387Z,26.40
2022-07-27T12:09:18.888Z,27.30
2022-07-27T12:11:56.661Z,26.50
2022-07-27T12:14:34.440Z,26.50
2022-07-27T12:17:14.771Z,26.50
2022-07-27T12:19:44.036Z,26.60
2022-07-27T12:22:12.296Z,26.70
2022-07-27T12:24:43.985Z,28.10
2022-07-27T12:27:16.341Z,26.80
2022-07-27T12:30:08.744Z,26.80
2022-07-27T12:32:38.935Z,26.80
2022-07-27T12:35:22.037Z,26.70
2022-07-27T12:37:56.596Z,26.60
2022-07-27T12:40:24.734Z,26.50
2022-07-27T12:42:59.509Z,28.30
2022-07-27T12:45:33.592Z,26.30
2022-07-27T12:48:10.048Z,26.20
2022-07-27T12:50:39.416Z,27.40
2022-07-27T12:53:07.738Z,26.10
2022-07-27T12:55:35.824Z,26.00
2022-07-27T12:58:05.339Z,26.00
2022-07-27T13:00:34.340Z,26.90
2022-07-27T13:03:03.501Z,26.00
2022-07-27T13:05:32.341Z,26.10
2022-07-27T13:08:01.106Z,26.10
2022-07-27T13:10:28.979Z,26.10
2022-07-27T13:12:57.272Z,26.20
2022-07-27T13:15:27.315Z,26.30
2022-07-27T13:17:55.340Z,26.30
2022-07-27T13:20:23.353Z,29.40
2022-07-27T13:22:51.563Z,26.40
2022-07-27T13:25:19.524Z,26.40
2022-07-27T13:27:48.613Z,28.30
2022-07-27T13:30:18.962Z,26.50
2022-07-27T13:32:48.241Z,26.60
2022-07-27T13:35:16.880Z,29.20
2022-07-27T13:37:46.166Z,26.70
2022-07-27T13:40:15.043Z,26.80
2022-07-27T13:42:42.966Z,28.90
2022-07-27T13:45:12.195Z,26.90
2022-07-27T13:47:41.376Z,26.90
2022-07-27T13:50:18.293Z,27.80
2022-07-27T13:52:48.395Z,28.20
2022-07-27T13:55:17.068Z,27.10
2022-07-27T13:57:45.513Z,27.20
2022-07-27T14:00:14.518Z,28.70
2022-07-27T14:02:42.740Z,27.20
2022-07-27T14:05:14.045Z,27.30
2022-07-27T14:07:42.963Z,27.30
2022-07-27T14:10:30.627Z,29.10
2022-07-27T14:13:08.475Z,27.40
2022-07-27T14:15:50.348Z,27.40
2022-07-27T14:18:26.555Z,27.50
2022-07-27T14:20:57.246Z,27.50
2022-07-27T14:23:26.697Z,27.60
2022-07-27T14:25:56.182Z,27.70
2022-07-27T14:28:24.768Z,27.80
2022-07-27T14:30:53.412Z,28.00
2022-07-27T14:33:21.661Z,29.40
2022-07-27T14:35:51.636Z,28.10
2022-07-27T14:38:29.874Z,28.20
2022-07-27T14:41:00.553Z,28.30
2022-07-27T14:43:28.662Z,28.40
2022-07-27T14:45:56.651Z,29.60
2022-07-27T14:48:42.228Z,28.60
2022-07-27T14:51:14.550Z,28.80
2022-07-27T14:53:43.846Z,29.00
2022-07-27T14:56:11.847Z,29.10
2022-07-27T14:58:39.967Z,29.20
2022-07-27T15:01:08.246Z,29.30
2022-07-27T15:03:39.198Z,29.40
2022-07-27T15:06:07.212Z,32.10
2022-07-27T15:08:35.193Z,29.60
2022-07-27T15:11:04.793Z,29.80
2022-07-27T15:13:32.727Z,29.90
2022-07-27T15:16:00.679Z,31.30
2022-07-27T15:18:28.709Z,30.20
2022-07-27T15:20:56.783Z,30.30
2022-07-27T15:23:24.740Z,30.50
2022-07-27T15:25:53.932Z,32.50
2022-07-27T15:28:23.540Z,30.70
2022-07-27T15:30:51.392Z,30.90
2022-07-27T15:33:19.408Z,30.90
2022-07-27T15:35:47.547Z,30.90
2022-07-27T15:38:15.544Z,30.70
2022-07-27T15:40:46.221Z,30.60
2022-07-27T15:43:16.880Z,30.40
2022-07-27T15:45:48.185Z,30.40
2022-07-27T15:48:17.495Z,30.40
2022-07-27T15:50:48.463Z,33.00
2022-07-27T15:53:20.696Z,30.70
2022-07-27T15:55:49.355Z,30.90
2022-07-27T15:58:19.617Z,31.10
2022-07-27T16:00:51.365Z,32.10
2022-07-27T16:03:20.250Z,31.20
2022-07-27T16:05:49.845Z,31.50
2022-07-27T16:08:19.786Z,31.40
2022-07-27T16:10:49.552Z,31.50
2022-07-27T16:13:18.011Z,31.70
2022-07-27T16:16:03.998Z,34.40
2022-07-27T16:18:38.599Z,32.10
2022-07-27T16:21:07.592Z,34.40
2022-07-27T16:23:35.930Z,32.30
2022-07-27T16:28:36.650Z,32.10
2022-07-27T16:31:05.845Z,32.50
2022-07-27T16:33:35.357Z,31.90
2022-07-27T16:38:31.520Z,31.10
2022-07-27T16:40:59.667Z,30.70
2022-07-27T16:43:36.304Z,30.30
2022-07-27T16:46:08.071Z,30.70
2022-07-27T16:48:42.621Z,29.50
2022-07-27T16:51:12.857Z,29.20
2022-07-27T16:53:42.180Z,28.90
2022-07-27T17:01:08.400Z,28.10
2022-07-27T17:03:38.694Z,28.00
2022-07-27T17:11:06.135Z,27.30
2022-07-27T17:21:12.468Z,26.70
2022-07-27T17:26:13.676Z,26.40
2022-07-27T17:28:42.582Z,26.20
2022-07-27T17:31:15.077Z,26.10
2022-07-27T17:33:48.141Z,26.00
2022-07-27T17:36:17.667Z,25.90
2022-07-27T17:38:46.529Z,25.80
2022-07-27T17:41:21.725Z,25.70
2022-07-27T17:48:53.204Z,25.50
2022-07-27T17:51:23.040Z,25.40
2022-07-27T18:03:44.983Z,25.30
2022-07-27T18:08:42.604Z,25.30
2022-07-27T18:13:44.639Z,25.30
2022-07-27T18:16:13.891Z,25.20
2022-07-27T18:21:11.618Z,25.10
2022-07-27T18:26:09.800Z,25.00
2022-07-27T18:28:40.081Z,25.10
2022-07-27T18:33:40.523Z,25.10
2022-07-27T18:38:41.409Z,24.90
2022-07-27T18:41:10.887Z,24.90
2022-07-27T18:46:07.140Z,24.80
2022-07-27T18:58:32.786Z,24.50
2022-07-27T19:03:30.420Z,24.40
2022-07-27T19:15:53.598Z,24.20
2022-07-27T19:23:19.968Z,24.00
2022-07-27T19:25:48.062Z,24.10
2022-07-27T19:28:19.106Z,24.00
2022-07-27T19:30:47.625Z,24.00
2022-07-27T19:33:17.501Z,23.90
2022-07-27T19:35:45.467Z,23.90
2022-07-27T19:38:16.379Z,23.80
2022-07-27T19:50:44.651Z,23.40
2022-07-27T20:00:42.447Z,23.00
2022-07-27T20:05:42.729Z,22.80
2022-07-27T20:08:13.984Z,22.80
2022-07-27T20:15:40.480Z,22.70
2022-07-27T20:20:40.107Z,22.60
2022-07-27T20:23:12.481Z,22.40
2022-07-27T20:28:09.962Z,22.40
2022-07-27T20:40:37.124Z,22.00
2022-07-27T20:50:32.777Z,21.70
2022-07-27T20:53:04.107Z,21.60
2022-07-27T20:55:34.867Z,21.60
2022-07-27T20:58:04.157Z,21.50
2022-07-27T21:00:32.132Z,21.40
2022-07-27T21:10:28.497Z,21.30
2022-07-27T21:12:56.439Z,21.20
2022-07-27T21:15:34.053Z,21.20
2022-07-27T21:18:02.533Z,21.10
2022-07-27T21:20:30.806Z,21.10
2022-07-27T21:23:15.581Z,21.00
2022-07-27T21:25:45.251Z,21.00
2022-07-27T21:28:18.354Z,21.00
2022-07-27T21:30:53.492Z,20.90
2022-07-27T21:35:49.874Z,20.80
2022-07-27T21:38:17.699Z,20.70
2022-07-27T21:40:45.725Z,20.70
2022-07-27T21:43:13.622Z,20.60
2022-07-27T21:45:47.851Z,20.60
2022-07-27T21:48:19.314Z,20.50
2022-07-27T21:50:47.284Z,20.50
2022-07-27T21:55:43.381Z,20.40
2022-07-27T22:03:09.587Z,20.30
2022-07-27T22:05:39.707Z,20.30
2022-07-27T22:08:07.629Z,20.30
2022-07-27T22:13:04.055Z,20.20
2022-07-27T22:15:31.981Z,20.20
2022-07-27T22:17:59.768Z,20.10
2022-07-27T22:20:27.618Z,20.10
2022-07-27T22:22:57.025Z,20.00
2022-07-27T22:25:24.917Z,20.00
2022-07-27T22:27:52.753Z,20.00
2022-07-27T22:30:20.617Z,19.90
2022-07-27T22:35:16.670Z,19.90
2022-07-27T22:37:44.509Z,19.80
2022-07-27T22:40:13.913Z,19.80
2022-07-27T22:42:43.917Z,19.80
2022-07-27T22:45:12.707Z,19.70
2022-07-27T22:47:40.559Z,19.50
2022-07-27T22:50:13.476Z,19.60
2022-07-27T22:55:17.291Z,19.60
2022-07-27T22:57:48.358Z,19.60
2022-07-27T23:00:18.520Z,19.50
2022-07-27T23:02:46.388Z,19.50
2022-07-27T23:05:14.314Z,19.50
2022-07-27T23:07:42.374Z,19.50
2022-07-27T23:10:32.384Z,19.50
2022-07-27T23:13:01.609Z,19.40
2022-07-27T23:15:30.891Z,19.40
2022-07-27T23:20:27.439Z,19.30
2022-07-27T23:25:24.811Z,19.30
2022-07-27T23:28:06.138Z,19.20
2022-07-27T23:30:34.149Z,19.20
2022-07-27T23:33:02.215Z,19.20
2022-07-27T23:35:30.230Z,19.20
2022-07-27T23:37:58.135Z,19.10
2022-07-27T23:40:26.492Z,19.10
2022-07-27T23:42:54.521Z,19.00
2022-07-27T23:45:23.763Z,19.00
2022-07-27T23:47:51.601Z,19.00
2022-07-27T23:50:21.787Z,19.00
2022-07-27T23:52:49.936Z,19.00
2022-07-27T23:55:17.907Z,19.00
2022-07-27T23:57:46.052Z,18.90
